createdAt,value
2023-03-18T00:00:45.890Z,0.85
2023-03-18T00:01:46.403Z,0.86
2023-03-18T00:02:47.694Z,0.85
2023-03-18T00:03:48.904Z,0.85
2023-03-18T00:04:47.103Z,0.89
2023-03-18T00:05:47.365Z,0.91
2023-03-18T00:06:47.669Z,0.9
2023-03-18T00:07:48.092Z,0.89
2023-03-18T00:08:50.235Z,0.88
2023-03-18T00:09:48.679Z,0.87
2023-03-18T00:10:51.091Z,0.88
2023-03-18T00:11:49.474Z,0.89
2023-03-18T00:12:49.857Z,0.86
2023-03-18T00:13:50.488Z,0.88
2023-03-18T00:14:51.296Z,0.95
2023-03-18T00:15:52.311Z,0.93
2023-03-18T00:16:51.326Z,0.97
2023-03-18T00:17:51.500Z,0.96
2023-03-18T00:18:52.052Z,0.98
2023-03-18T00:19:52.275Z,0.98
2023-03-18T00:20:52.480Z,0.97
2023-03-18T00:21:53.116Z,0.96
2023-03-18T00:22:53.228Z,0.95
2023-03-18T00:23:53.550Z,0.94
2023-03-18T00:24:53.944Z,0.94
2023-03-18T00:25:56.740Z,0.96
2023-03-18T00:26:57.631Z,0.99
2023-03-18T00:27:54.974Z,1.01
2023-03-18T00:28:56.845Z,0.97
2023-03-18T00:29:55.712Z,0.97
2023-03-18T00:30:56.056Z,0.98
2023-03-18T00:31:57.568Z,0.98
2023-03-18T00:32:56.959Z,0.96
2023-03-18T00:33:56.990Z,0.95
2023-03-18T00:34:57.582Z,0.96
2023-03-18T00:35:57.821Z,1
2023-03-18T00:36:58.019Z,0.96
2023-03-18T00:37:58.986Z,0.94
2023-03-18T00:38:58.950Z,0.91
2023-03-18T00:40:05.296Z,0.88
2023-03-18T00:41:02.656Z,0.92
2023-03-18T00:42:03.164Z,0.9
2023-03-18T00:43:03.278Z,0.88
2023-03-18T00:44:04.100Z,0.82
2023-03-18T00:45:04.839Z,0.83
2023-03-18T00:46:04.828Z,0.83
2023-03-18T00:47:04.896Z,0.78
2023-03-18T00:48:05.248Z,0.74
2023-03-18T00:49:08.430Z,0.7
2023-03-18T00:50:07.447Z,0.68
2023-03-18T00:51:06.200Z,0.65
2023-03-18T00:52:06.922Z,0.63
2023-03-18T00:53:06.811Z,0.62
2023-03-18T00:54:09.491Z,0.65
2023-03-18T00:55:08.684Z,0.65
2023-03-18T00:56:08.293Z,0.66
2023-03-18T00:57:08.383Z,0.65
2023-03-18T00:58:09.625Z,0.66
2023-03-18T00:59:08.935Z,0.68
2023-03-18T01:00:10.263Z,0.66
2023-03-18T01:01:10.249Z,0.66
2023-03-18T01:02:09.775Z,0.61
2023-03-18T01:03:10.170Z,0.62
2023-03-18T01:04:11.909Z,0.68
2023-03-18T01:05:13.967Z,0.65
2023-03-18T01:06:12.960Z,0.65
2023-03-18T01:07:11.644Z,0.67
2023-03-18T01:08:11.845Z,0.65
2023-03-18T01:09:13.021Z,0.62
2023-03-18T01:10:13.944Z,0.65
2023-03-18T01:11:13.205Z,0.68
2023-03-18T01:12:13.793Z,0.69
2023-03-18T01:13:13.775Z,0.65
2023-03-18T01:14:13.995Z,0.64
2023-03-18T01:15:18.441Z,0.63
2023-03-18T01:16:17.080Z,0.61
2023-03-18T01:17:16.116Z,0.57
2023-03-18T01:18:17.162Z,0.56
2023-03-18T01:19:17.132Z,0.59
2023-03-18T01:20:20.629Z,0.62
2023-03-18T01:21:18.067Z,0.66
2023-03-18T01:22:18.715Z,0.67
2023-03-18T01:23:18.901Z,0.66
2023-03-18T01:24:19.010Z,0.63
2023-03-18T01:25:20.056Z,0.54
2023-03-18T01:26:19.765Z,0.62
2023-03-18T01:27:19.952Z,0.69
2023-03-18T01:28:21.282Z,0.62
2023-03-18T01:29:20.796Z,0.61
2023-03-18T01:30:21.411Z,0.61
2023-03-18T01:31:21.426Z,0.62
2023-03-18T01:32:21.851Z,0.73
2023-03-18T01:33:22.088Z,0.76
2023-03-18T01:34:22.567Z,0.75
2023-03-18T01:35:23.523Z,0.7
2023-03-18T01:36:23.099Z,0.73
2023-03-18T01:37:26.581Z,0.74
2023-03-18T01:38:24.940Z,0.72
2023-03-18T01:39:27.163Z,0.7
2023-03-18T01:40:26.816Z,0.66
2023-03-18T01:41:26.086Z,0.69
2023-03-18T01:42:28.391Z,0.66
2023-03-18T01:43:31.692Z,0.72
2023-03-18T01:44:29.687Z,0.79
2023-03-18T01:45:32.371Z,0.82
2023-03-18T01:47:38.527Z,0.73
2023-03-18T01:48:40.173Z,0.77
2023-03-18T01:49:46.632Z,0.83
2023-03-18T01:50:47.481Z,0.85
2023-03-18T01:52:51.460Z,0.71
2023-03-18T01:53:50.651Z,0.65
2023-03-18T01:54:58.137Z,0.66
2023-03-18T01:55:51.273Z,0.72
2023-03-18T01:56:51.062Z,0.76
2023-03-18T01:57:52.004Z,0.76
2023-03-18T01:58:55.383Z,0.74
2023-03-18T01:59:55.202Z,0.78
2023-03-18T02:00:59.815Z,0.82
2023-03-18T02:03:01.784Z,0.79
2023-03-18T02:04:05.380Z,0.77
2023-03-18T02:05:07.210Z,0.76
2023-03-18T02:06:05.278Z,0.75
2023-03-18T02:07:05.768Z,0.78
2023-03-18T02:08:05.381Z,0.77
2023-03-18T02:09:06.627Z,0.73
2023-03-18T02:10:11.744Z,0.67
2023-03-18T02:11:10.620Z,0.65
2023-03-18T02:12:13.598Z,0.76
2023-03-18T02:13:11.564Z,0.81
2023-03-18T02:14:14.227Z,0.79
2023-03-18T02:15:16.179Z,0.74
2023-03-18T02:17:19.164Z,0.74
2023-03-18T02:18:22.650Z,0.76
2023-03-18T02:22:37.220Z,0.71
2023-03-18T02:27:47.292Z,0.7
2023-03-18T02:28:47.297Z,0.7
2023-03-18T02:29:46.704Z,0.65
2023-03-18T02:31:50.484Z,0.71
2023-03-18T02:32:52.024Z,0.69
2023-03-18T02:33:50.773Z,0.65
2023-03-18T02:34:51.044Z,0.64
2023-03-18T02:36:53.283Z,0.68
2023-03-18T02:37:53.498Z,0.61
2023-03-18T02:38:54.531Z,0.52
2023-03-18T02:39:54.028Z,0.51
2023-03-18T02:40:54.340Z,0.49
2023-03-18T02:41:54.686Z,0.49
2023-03-18T02:42:55.342Z,0.57
2023-03-18T02:43:56.638Z,0.59
2023-03-18T02:44:55.692Z,0.62
2023-03-18T02:47:04.199Z,0.63
2023-03-18T02:48:04.732Z,0.56
2023-03-18T02:49:04.876Z,0.52
2023-03-18T02:50:02.600Z,0.44
2023-03-18T02:51:04.505Z,0.42
2023-03-18T02:52:03.644Z,0.47
2023-03-18T02:53:05.699Z,0.52
2023-03-18T02:54:16.951Z,0.56
2023-03-18T02:55:05.193Z,0.51
2023-03-18T02:56:05.915Z,0.46
2023-03-18T02:57:05.112Z,0.44
2023-03-18T02:58:05.554Z,0.46
2023-03-18T02:59:06.069Z,0.46
2023-03-18T03:00:07.576Z,0.43
2023-03-18T03:01:07.519Z,0.42
2023-03-18T03:02:06.663Z,0.47
2023-03-18T03:03:07.095Z,0.43
2023-03-18T03:04:08.017Z,0.37
2023-03-18T03:05:08.438Z,0.4
2023-03-18T03:06:08.461Z,0.41
2023-03-18T03:07:08.746Z,0.44
2023-03-18T03:08:09.176Z,0.48
2023-03-18T03:09:11.631Z,0.51
2023-03-18T03:10:10.956Z,0.49
2023-03-18T03:11:10.931Z,0.47
2023-03-18T03:12:10.532Z,0.48
2023-03-18T03:13:10.636Z,0.48
2023-03-18T03:14:12.173Z,0.47
2023-03-18T03:15:11.774Z,0.47
2023-03-18T03:16:13.008Z,0.43
2023-03-18T03:17:11.890Z,0.47
2023-03-18T03:18:12.314Z,0.5
2023-03-18T03:19:12.539Z,0.47
2023-03-18T03:20:13.445Z,0.49
2023-03-18T03:21:14.170Z,0.53
2023-03-18T03:22:13.667Z,0.5
2023-03-18T03:23:15.406Z,0.47
2023-03-18T03:24:14.286Z,0.51
2023-03-18T03:25:14.610Z,0.53
2023-03-18T03:26:16.053Z,0.54
2023-03-18T03:27:15.542Z,0.53
2023-03-18T03:28:17.038Z,0.51
2023-03-18T03:29:15.963Z,0.51
2023-03-18T03:30:16.371Z,0.51
2023-03-18T03:31:17.499Z,0.53
2023-03-18T03:32:16.984Z,0.55
2023-03-18T03:33:17.223Z,0.5
2023-03-18T03:34:17.628Z,0.5
2023-03-18T03:35:20.101Z,0.46
2023-03-18T03:36:18.267Z,0.43
2023-03-18T03:37:18.590Z,0.47
2023-03-18T03:38:19.217Z,0.52
2023-03-18T03:39:19.415Z,0.51
2023-03-18T03:40:21.154Z,0.57
2023-03-18T03:41:22.899Z,0.54
2023-03-18T03:42:20.567Z,0.53
2023-03-18T03:43:20.869Z,0.54
2023-03-18T03:44:20.988Z,0.56
2023-03-18T03:45:21.846Z,0.57
2023-03-18T03:46:21.906Z,0.55
2023-03-18T03:47:22.346Z,0.61
2023-03-18T03:48:22.338Z,0.63
2023-03-18T03:49:22.700Z,0.56
2023-03-18T03:50:23.740Z,0.55
2023-03-18T03:51:23.383Z,0.59
2023-03-18T03:52:23.751Z,0.55
2023-03-18T03:53:24.722Z,0.54
2023-03-18T03:54:25.770Z,0.57
2023-03-18T03:55:25.264Z,0.54
2023-03-18T03:56:25.057Z,0.5
2023-03-18T03:57:25.331Z,0.43
2023-03-18T03:58:27.276Z,0.43
2023-03-18T03:59:26.225Z,0.51
2023-03-18T04:00:26.675Z,0.53
2023-03-18T04:01:26.736Z,0.54
2023-03-18T04:02:27.430Z,0.47
2023-03-18T04:03:27.656Z,0.49
2023-03-18T04:04:28.084Z,0.55
2023-03-18T04:05:28.291Z,0.53
2023-03-18T04:06:28.796Z,0.54
2023-03-18T04:07:28.938Z,0.56
2023-03-18T04:08:29.122Z,0.53
2023-03-18T04:09:29.494Z,0.53
2023-03-18T04:10:30.331Z,0.48
2023-03-18T04:11:30.680Z,0.44
2023-03-18T04:12:30.694Z,0.44
2023-03-18T04:13:30.808Z,0.44
2023-03-18T04:14:31.843Z,0.41
2023-03-18T04:15:31.749Z,0.39
2023-03-18T04:16:31.861Z,0.43
2023-03-18T04:17:32.666Z,0.44
2023-03-18T04:18:32.569Z,0.46
2023-03-18T04:19:32.995Z,0.44
2023-03-18T04:20:35.163Z,0.44
2023-03-18T04:21:33.935Z,0.41
2023-03-18T04:22:34.065Z,0.4
2023-03-18T04:23:34.544Z,0.39
2023-03-18T04:24:35.123Z,0.35
2023-03-18T04:25:35.142Z,0.37
2023-03-18T04:26:38.574Z,0.41
2023-03-18T04:27:36.110Z,0.38
2023-03-18T04:28:36.224Z,0.41
2023-03-18T04:29:36.653Z,0.44
2023-03-18T04:30:36.964Z,0.42
2023-03-18T04:31:37.350Z,0.41
2023-03-18T04:32:37.520Z,0.38
2023-03-18T04:33:38.062Z,0.41
2023-03-18T04:34:38.526Z,0.42
2023-03-18T04:35:38.695Z,0.4
2023-03-18T04:36:39.050Z,0.39
2023-03-18T04:37:39.549Z,0.42
2023-03-18T04:38:40.175Z,0.42
2023-03-18T04:39:40.498Z,0.46
2023-03-18T04:40:40.404Z,0.46
2023-03-18T04:41:40.743Z,0.47
2023-03-18T04:42:41.035Z,0.48
2023-03-18T04:43:41.448Z,0.45
2023-03-18T04:44:41.756Z,0.43
2023-03-18T04:45:41.983Z,0.42
2023-03-18T04:46:42.542Z,0.42
2023-03-18T04:47:45.060Z,0.39
2023-03-18T04:48:43.426Z,0.42
2023-03-18T04:49:43.851Z,0.45
2023-03-18T04:50:43.684Z,0.47
2023-03-18T04:51:44.050Z,0.5
2023-03-18T04:52:44.466Z,0.52
2023-03-18T04:53:45.034Z,0.54
2023-03-18T04:54:45.199Z,0.58
2023-03-18T04:55:45.436Z,0.61
2023-03-18T04:56:45.734Z,0.62
2023-03-18T04:57:46.238Z,0.59
2023-03-18T04:58:46.761Z,0.61
2023-03-18T04:59:46.978Z,0.61
2023-03-18T05:00:47.167Z,0.61
2023-03-18T05:01:47.511Z,0.61
2023-03-18T05:02:48.340Z,0.59
2023-03-18T05:03:48.261Z,0.61
2023-03-18T05:04:48.548Z,0.63
2023-03-18T05:05:48.968Z,0.62
2023-03-18T05:06:49.397Z,0.61
2023-03-18T05:07:49.504Z,0.62
2023-03-18T05:08:50.331Z,0.58
2023-03-18T05:09:50.324Z,0.55
2023-03-18T05:10:50.845Z,0.54
2023-03-18T05:11:50.952Z,0.6
2023-03-18T05:12:51.622Z,0.59
2023-03-18T05:13:51.524Z,0.65
2023-03-18T05:14:52.512Z,0.7
2023-03-18T05:15:52.168Z,0.66
2023-03-18T05:16:52.672Z,0.62
2023-03-18T05:17:52.967Z,0.61
2023-03-18T05:18:53.273Z,0.63
2023-03-18T05:19:53.706Z,0.67
2023-03-18T05:20:54.087Z,0.64
2023-03-18T05:21:54.395Z,0.68
2023-03-18T05:22:55.082Z,0.76
2023-03-18T05:23:56.277Z,0.81
2023-03-18T05:24:56.570Z,0.8
2023-03-18T05:25:55.755Z,0.76
2023-03-18T05:26:56.083Z,0.79
2023-03-18T05:27:56.495Z,0.83
2023-03-18T05:28:56.693Z,0.86
2023-03-18T05:29:57.271Z,0.85
2023-03-18T05:30:57.378Z,0.76
2023-03-18T05:31:57.919Z,0.81
2023-03-18T05:32:58.149Z,0.9
2023-03-18T05:33:58.426Z,0.92
2023-03-18T05:34:59.068Z,0.99
2023-03-18T05:35:59.223Z,1.12
2023-03-18T05:36:59.615Z,1.1
2023-03-18T05:37:59.827Z,1.13
2023-03-18T05:39:00.251Z,1.19
2023-03-18T05:40:00.664Z,1.18
2023-03-18T05:41:00.976Z,1.12
2023-03-18T05:42:01.602Z,1.16
2023-03-18T05:43:04.694Z,1.1
2023-03-18T05:44:02.020Z,1.08
2023-03-18T05:45:02.535Z,1.1
2023-03-18T05:46:02.933Z,1.14
2023-03-18T05:47:03.277Z,1.19
2023-03-18T05:48:06.662Z,1.2
2023-03-18T05:49:03.925Z,1.24
2023-03-18T05:50:05.031Z,1.31
2023-03-18T05:51:05.654Z,1.36
2023-03-18T05:52:06.253Z,1.38
2023-03-18T05:53:06.273Z,1.45
2023-03-18T05:54:06.282Z,1.54
2023-03-18T05:55:06.801Z,1.59
2023-03-18T05:56:07.997Z,1.68
2023-03-18T05:57:06.929Z,1.76
2023-03-18T05:58:07.577Z,1.7
2023-03-18T05:59:07.500Z,1.66
2023-03-18T06:00:09.375Z,1.64
2023-03-18T06:01:08.277Z,1.67
2023-03-18T06:02:08.881Z,1.78
2023-03-18T06:03:09.010Z,1.75
2023-03-18T06:04:09.519Z,1.71
2023-03-18T06:05:09.942Z,1.83
2023-03-18T06:06:10.011Z,1.92
2023-03-18T06:07:10.468Z,1.89
2023-03-18T06:08:10.759Z,1.89
2023-03-18T06:09:13.478Z,1.88
2023-03-18T06:10:12.330Z,1.9
2023-03-18T06:11:11.939Z,1.93
2023-03-18T06:12:12.356Z,1.99
2023-03-18T06:13:12.409Z,2.05
2023-03-18T06:14:13.706Z,2.18
2023-03-18T06:15:13.611Z,2.25
2023-03-18T06:16:13.531Z,2.37
2023-03-18T06:17:13.785Z,2.52
2023-03-18T06:18:14.338Z,2.62
2023-03-18T06:19:14.554Z,2.62
2023-03-18T06:20:16.005Z,2.59
2023-03-18T06:21:15.600Z,2.58
2023-03-18T06:22:16.007Z,2.59
2023-03-18T06:23:15.991Z,2.51
2023-03-18T06:24:16.329Z,2.55
2023-03-18T06:25:19.532Z,2.63
2023-03-18T06:26:17.272Z,2.63
2023-03-18T06:27:17.472Z,2.68
2023-03-18T06:28:17.782Z,2.62
2023-03-18T06:29:18.094Z,2.72
2023-03-18T06:30:19.134Z,2.65
2023-03-18T06:31:22.135Z,2.57
2023-03-18T06:32:22.282Z,2.58
2023-03-18T06:33:22.908Z,2.66
2023-03-18T06:34:23.976Z,2.66
2023-03-18T06:35:27.215Z,2.64
2023-03-18T06:36:25.005Z,2.56
2023-03-18T06:37:26.412Z,2.55
2023-03-18T06:38:27.294Z,2.53
2023-03-18T06:39:28.896Z,2.43
2023-03-18T06:40:26.741Z,2.54
2023-03-18T06:41:26.689Z,2.59
2023-03-18T06:42:28.239Z,2.73
2023-03-18T06:43:31.712Z,2.87
2023-03-18T06:44:29.371Z,2.88
2023-03-18T06:45:30.163Z,2.98
2023-03-18T06:46:30.449Z,2.99
2023-03-18T06:47:33.619Z,2.94
2023-03-18T06:48:33.028Z,2.86
2023-03-18T06:49:31.518Z,2.87
2023-03-18T06:50:32.479Z,2.96
2023-03-18T06:51:32.908Z,3.02
2023-03-18T06:52:33.373Z,3.04
2023-03-18T06:53:33.817Z,2.94
2023-03-18T06:54:33.948Z,3.01
2023-03-18T06:55:36.262Z,3.03
2023-03-18T06:56:35.275Z,3.23
2023-03-18T06:57:35.091Z,3.25
2023-03-18T06:58:38.480Z,3.25
2023-03-18T06:59:36.324Z,3.22
2023-03-18T07:00:36.778Z,3.31
2023-03-18T07:01:37.441Z,3.39
2023-03-18T07:02:39.518Z,3.55
2023-03-18T07:03:37.579Z,3.51
2023-03-18T07:04:37.884Z,3.55
2023-03-18T07:05:38.307Z,3.59
2023-03-18T07:06:38.585Z,3.38
2023-03-18T07:07:40.293Z,3.41
2023-03-18T07:08:39.345Z,3.46
2023-03-18T07:09:39.892Z,3.3
2023-03-18T07:10:40.214Z,3.43
2023-03-18T07:11:40.727Z,3.4
2023-03-18T07:12:41.033Z,3.53
2023-03-18T07:13:41.890Z,3.66
2023-03-18T07:14:41.642Z,3.75
2023-03-18T07:15:41.899Z,3.84
2023-03-18T07:16:43.035Z,3.81
2023-03-18T07:17:43.190Z,3.96
2023-03-18T07:18:42.778Z,3.77
2023-03-18T07:19:43.329Z,3.87
2023-03-18T07:20:43.813Z,3.78
2023-03-18T07:21:44.149Z,3.69
2023-03-18T07:22:46.526Z,3.73
2023-03-18T07:23:47.597Z,3.7
2023-03-18T07:24:46.066Z,3.88
2023-03-18T07:25:45.704Z,4.05
2023-03-18T07:26:45.885Z,4.12
2023-03-18T07:27:46.344Z,4.26
2023-03-18T07:28:46.850Z,4.23
2023-03-18T07:29:47.050Z,4.3
2023-03-18T07:30:48.356Z,4.19
2023-03-18T07:31:48.421Z,4.09
2023-03-18T07:32:48.241Z,4.08
2023-03-18T07:33:49.991Z,4.19
2023-03-18T07:34:49.349Z,4.25
2023-03-18T07:35:49.497Z,4.1
2023-03-18T07:36:50.501Z,4.18
2023-03-18T07:37:50.205Z,4.16
2023-03-18T07:38:51.223Z,4.03
2023-03-18T07:39:51.127Z,4.07
2023-03-18T07:40:51.146Z,4.14
2023-03-18T07:41:51.619Z,4.04
2023-03-18T07:42:51.979Z,3.98
2023-03-18T07:43:52.242Z,3.93
2023-03-18T07:44:52.829Z,3.91
2023-03-18T07:45:53.303Z,3.94
2023-03-18T07:46:53.554Z,4.07
2023-03-18T07:47:53.749Z,4.05
2023-03-18T07:48:54.484Z,4.01
2023-03-18T07:49:54.486Z,3.96
2023-03-18T07:50:54.852Z,3.88
2023-03-18T07:51:55.311Z,3.96
2023-03-18T07:52:55.622Z,3.9
2023-03-18T07:53:56.071Z,4.05
2023-03-18T07:54:56.915Z,4.09
2023-03-18T07:55:57.936Z,4.21
2023-03-18T07:57:00.223Z,4.31
2023-03-18T07:57:59.467Z,4.12
2023-03-18T07:58:59.141Z,4.25
2023-03-18T07:59:58.582Z,4.27
2023-03-18T08:01:01.842Z,4.46
2023-03-18T08:02:00.000Z,4.47
2023-03-18T08:03:00.425Z,4.32
2023-03-18T08:04:00.959Z,4.45
2023-03-18T08:05:01.143Z,4.6
2023-03-18T08:06:03.175Z,4.64
2023-03-18T08:07:02.245Z,4.63
2023-03-18T08:08:02.241Z,4.41
2023-03-18T08:09:04.753Z,4.52
2023-03-18T08:10:03.640Z,4.59
2023-03-18T08:11:03.442Z,4.54
2023-03-18T08:12:04.694Z,4.64
2023-03-18T08:13:07.375Z,4.8
2023-03-18T08:14:04.898Z,4.9
2023-03-18T08:15:06.576Z,4.83
2023-03-18T08:16:07.952Z,4.81
2023-03-18T08:17:10.930Z,4.76
2023-03-18T08:18:09.564Z,4.83
2023-03-18T08:19:09.102Z,4.72
2023-03-18T08:20:14.152Z,4.73
2023-03-18T08:21:12.412Z,4.87
2023-03-18T08:22:12.456Z,4.87
2023-03-18T08:23:13.449Z,4.81
2023-03-18T08:24:14.065Z,4.87
2023-03-18T08:25:14.467Z,4.82
2023-03-18T08:26:13.669Z,4.82
2023-03-18T08:27:13.971Z,4.97
2023-03-18T08:28:14.238Z,4.91
2023-03-18T08:29:15.010Z,4.98
2023-03-18T08:30:15.223Z,5.06
2023-03-18T08:31:16.678Z,5.11
2023-03-18T08:32:16.471Z,5.18
2023-03-18T08:33:16.378Z,5.3
2023-03-18T08:34:16.683Z,5.35
2023-03-18T08:35:16.968Z,5.27
2023-03-18T08:36:17.837Z,5.31
2023-03-18T08:37:20.799Z,5.25
2023-03-18T08:38:19.572Z,5.38
2023-03-18T08:39:20.617Z,5.31
2023-03-18T08:40:20.004Z,5.22
2023-03-18T08:41:19.596Z,5.35
2023-03-18T08:42:20.030Z,5.4
2023-03-18T08:43:20.598Z,5.46
2023-03-18T08:44:20.751Z,5.65
2023-03-18T08:45:22.194Z,5.38
2023-03-18T08:46:21.503Z,5.35
2023-03-18T08:47:22.117Z,5.25
2023-03-18T08:48:24.884Z,5.31
2023-03-18T08:49:22.729Z,5.31
2023-03-18T08:50:25.711Z,5.43
2023-03-18T08:51:24.387Z,5.42
2023-03-18T08:52:25.815Z,5.46
2023-03-18T08:53:24.196Z,5.58
2023-03-18T08:54:28.614Z,5.64
2023-03-18T08:55:37.737Z,5.7
2023-03-18T08:56:30.776Z,5.95
2023-03-18T08:57:30.969Z,6.17
2023-03-18T08:58:31.454Z,6.07
2023-03-18T08:59:40.531Z,6.09
2023-03-18T09:00:37.342Z,5.81
2023-03-18T09:01:38.995Z,5.9
2023-03-18T09:02:46.182Z,5.71
2023-03-18T09:03:43.003Z,5.91
2023-03-18T09:04:45.169Z,6.15
2023-03-18T09:05:48.806Z,6.06
2023-03-18T09:06:50.918Z,5.94
2023-03-18T09:07:52.744Z,5.99
2023-03-18T09:08:50.837Z,5.94
2023-03-18T09:09:54.195Z,6.12
2023-03-18T09:10:59.840Z,6.17
2023-03-18T09:11:58.898Z,6.24
2023-03-18T09:13:00.163Z,6.3
2023-03-18T09:14:00.096Z,6.5
2023-03-18T09:15:00.396Z,6.38
2023-03-18T09:16:03.478Z,6.2
2023-03-18T09:17:01.370Z,5.94
2023-03-18T09:18:11.498Z,5.86
2023-03-18T09:19:10.056Z,6.05
2023-03-18T09:20:14.348Z,6.11
2023-03-18T09:21:13.537Z,5.84
2023-03-18T09:22:14.042Z,6.02
2023-03-18T09:23:14.163Z,5.76
2023-03-18T09:24:13.376Z,6.09
2023-03-18T09:25:18.255Z,6
2023-03-18T09:26:17.371Z,5.96
2023-03-18T09:27:16.299Z,6.05
2023-03-18T09:28:16.638Z,6.1
2023-03-18T09:29:17.160Z,6.35
2023-03-18T09:30:17.635Z,6.2
2023-03-18T09:31:17.763Z,6.22
2023-03-18T09:32:18.112Z,6.02
2023-03-18T09:33:19.295Z,6.15
2023-03-18T09:34:19.033Z,6
2023-03-18T09:35:21.716Z,6.07
2023-03-18T09:36:19.860Z,6.02
2023-03-18T09:37:20.191Z,6.01
2023-03-18T09:38:21.314Z,5.78
2023-03-18T09:39:21.693Z,5.82
2023-03-18T09:40:30.466Z,5.94
2023-03-18T09:55:56.060Z,6.12
2023-03-18T09:56:54.008Z,5.81
2023-03-18T09:57:58.514Z,5.86
2023-03-18T09:59:04.353Z,5.85
2023-03-18T10:01:04.051Z,5.93
2023-03-18T10:02:03.248Z,5.96
2023-03-18T10:11:32.040Z,6.32
2023-03-18T10:15:45.793Z,6.29
2023-03-18T10:39:37.722Z,6.23
2023-03-18T10:40:39.346Z,6.24
2023-03-18T10:41:39.061Z,6.17
2023-03-18T10:42:38.437Z,6.1
2023-03-18T10:43:39.475Z,6.21
2023-03-18T10:44:41.745Z,6.11
2023-03-18T10:45:39.480Z,6.07
2023-03-18T10:46:40.389Z,5.95
2023-03-18T10:53:04.798Z,6.11
2023-03-18T10:54:57.268Z,6.04
2023-03-18T10:56:06.677Z,6.05
2023-03-18T10:56:59.475Z,6.09
2023-03-18T10:58:00.054Z,6.04
2023-03-18T10:58:59.844Z,6.07
2023-03-18T11:00:00.204Z,6.18
2023-03-18T11:01:01.401Z,6.18
2023-03-18T11:02:06.976Z,6.28
2023-03-18T11:03:05.551Z,6.4
2023-03-18T11:04:07.285Z,6.24
2023-03-18T11:06:18.020Z,6.39
2023-03-18T11:07:17.122Z,6.36
2023-03-18T11:09:28.682Z,6.23
2023-03-18T11:10:26.976Z,6.13
2023-03-18T11:11:30.135Z,6.06
2023-03-18T11:12:29.175Z,6.04
2023-03-18T11:13:27.845Z,6.11
2023-03-18T11:14:30.770Z,6.12
2023-03-18T11:15:39.534Z,6.23
2023-03-18T11:17:38.277Z,6.26
2023-03-18T11:18:37.852Z,6.03
2023-03-18T11:19:46.057Z,6.14
2023-03-18T11:20:43.230Z,6.2
2023-03-18T11:21:41.673Z,6.07
2023-03-18T11:22:46.788Z,6.03
2023-03-18T11:25:55.541Z,6.09
2023-03-18T11:26:55.950Z,6.22
2023-03-18T11:27:59.890Z,6.11
2023-03-18T11:29:02.811Z,6.12
2023-03-18T11:30:03.387Z,6.15
2023-03-18T11:31:05.575Z,6.13
2023-03-18T11:32:08.265Z,6.14
2023-03-18T11:33:18.321Z,6.06
2023-03-18T11:34:10.754Z,6
2023-03-18T11:35:20.143Z,5.95
2023-03-18T11:36:24.299Z,6.08
2023-03-18T11:37:19.926Z,6.23
2023-03-18T11:41:26.244Z,6.22
2023-03-18T11:42:24.399Z,6.31
2023-03-18T11:43:24.678Z,6.29
2023-03-18T11:47:33.833Z,6.06
2023-03-18T11:49:38.162Z,6.17
2023-03-18T11:50:43.109Z,6.09
2023-03-18T12:06:22.212Z,6.31
2023-03-18T12:21:00.269Z,6
2023-03-18T12:51:25.540Z,6.44
2023-03-18T12:55:42.980Z,6.43
2023-03-18T12:56:38.815Z,6.14
2023-03-18T12:59:48.573Z,6.17
2023-03-18T13:03:06.135Z,6.31
2023-03-18T13:04:00.580Z,6.34
2023-03-18T13:05:02.430Z,6.44
2023-03-18T13:12:27.877Z,6.53
2023-03-18T13:13:22.551Z,6.66
2023-03-18T13:16:28.543Z,6.37
2023-03-18T13:19:36.325Z,6.36
2023-03-18T13:20:38.484Z,6.47
2023-03-18T13:21:42.677Z,6.24
2023-03-18T13:42:40.063Z,6.15
2023-03-18T13:45:48.026Z,6.19
2023-03-18T13:49:01.395Z,6.14
2023-03-18T13:50:57.340Z,6.21
2023-03-18T13:52:00.604Z,6.28
2023-03-18T13:53:00.694Z,6.2
2023-03-18T13:54:02.037Z,6.23
2023-03-18T13:55:07.787Z,6.17
2023-03-18T13:56:04.613Z,6.24
2023-03-18T14:07:27.629Z,5.81
2023-03-18T14:09:35.117Z,5.79
2023-03-18T14:10:32.662Z,5.88
2023-03-18T14:11:45.480Z,5.91
2023-03-18T14:12:42.200Z,5.83
2023-03-18T14:13:39.860Z,5.73
2023-03-18T14:14:54.191Z,5.81
2023-03-18T14:15:43.414Z,5.83
2023-03-18T14:19:52.491Z,5.72
2023-03-18T14:20:54.224Z,5.7
2023-03-18T14:21:54.967Z,5.62
2023-03-18T14:22:55.127Z,5.6
2023-03-18T14:26:06.772Z,5.59
2023-03-18T14:34:24.650Z,5.43
2023-03-18T14:35:27.452Z,5.43
2023-03-18T14:37:31.232Z,5.37
2023-03-18T14:41:43.837Z,5.24
2023-03-18T14:45:49.093Z,5.34
2023-03-18T14:46:51.612Z,5.35
2023-03-18T14:47:53.421Z,5.28
2023-03-18T14:48:53.947Z,5.29
2023-03-18T14:50:53.905Z,5.27
2023-03-18T14:51:54.253Z,5.31
2023-03-18T14:52:58.608Z,5.34
2023-03-18T14:54:04.918Z,5.21
2023-03-18T14:55:06.085Z,5.12
2023-03-18T14:55:59.064Z,5.1
2023-03-18T14:57:04.282Z,5.07
2023-03-18T14:58:01.875Z,5.13
2023-03-18T14:59:01.930Z,5.11
2023-03-18T15:00:02.405Z,5.1
2023-03-18T15:01:08.732Z,5.08
2023-03-18T15:03:16.930Z,4.98
2023-03-18T15:04:18.492Z,5.05
2023-03-18T15:05:17.634Z,5.11
2023-03-18T15:06:23.113Z,5.03
2023-03-18T15:07:15.531Z,5
2023-03-18T15:08:21.286Z,4.91
2023-03-18T15:09:25.705Z,4.88
2023-03-18T15:10:27.034Z,4.99
2023-03-18T15:11:24.722Z,4.89
2023-03-18T15:12:27.653Z,4.94
2023-03-18T15:13:26.133Z,4.84
2023-03-18T15:14:33.006Z,4.83
2023-03-18T15:15:31.089Z,4.8
2023-03-18T15:16:31.055Z,4.81
2023-03-18T15:17:31.403Z,4.81
2023-03-18T15:18:37.334Z,4.73
2023-03-18T15:19:34.674Z,4.71
2023-03-18T15:20:36.441Z,4.69
2023-03-18T15:21:36.367Z,4.59
2023-03-18T15:22:37.053Z,4.7
2023-03-18T15:23:42.702Z,4.66
2023-03-18T15:24:40.237Z,4.65
2023-03-18T15:25:44.233Z,4.62
2023-03-18T15:26:42.958Z,4.67
2023-03-18T15:27:41.998Z,4.71
2023-03-18T15:28:47.236Z,4.64
2023-03-18T15:31:51.621Z,4.62
2023-03-18T15:37:03.040Z,4.45
2023-03-18T15:41:11.268Z,4.46
2023-03-18T15:44:25.323Z,4.39
2023-03-18T15:45:20.859Z,4.37
2023-03-18T15:47:27.414Z,4.29
2023-03-18T15:49:29.982Z,4.22
2023-03-18T15:50:31.498Z,4.25
2023-03-18T15:51:34.477Z,4.26
2023-03-18T15:52:33.912Z,4.26
2023-03-18T15:54:41.074Z,4.14
2023-03-18T15:57:47.835Z,4.15
2023-03-18T15:58:45.708Z,4.12
2023-03-18T15:59:45.836Z,4.12
2023-03-18T16:00:46.190Z,4.05
2023-03-18T16:01:46.342Z,4.06
2023-03-18T16:02:46.984Z,4.08
2023-03-18T16:03:47.402Z,4.06
2023-03-18T16:04:48.001Z,4.06
2023-03-18T16:05:48.198Z,4.02
2023-03-18T16:06:48.309Z,4.05
2023-03-18T16:07:49.050Z,4.07
2023-03-18T16:08:49.356Z,3.99
2023-03-18T16:09:49.789Z,3.93
2023-03-18T16:10:52.395Z,3.97
2023-03-18T16:12:57.149Z,3.96
2023-03-18T16:13:55.013Z,3.93
2023-03-18T16:14:55.116Z,3.95
2023-03-18T16:15:55.534Z,3.96
2023-03-18T16:16:55.882Z,3.98
2023-03-18T16:17:56.787Z,3.99
2023-03-18T16:18:56.267Z,3.93
2023-03-18T16:19:56.792Z,3.8
2023-03-18T16:20:56.939Z,3.81
2023-03-18T16:21:58.659Z,3.87
2023-03-18T16:22:57.945Z,3.85
2023-03-18T16:23:58.148Z,3.91
2023-03-18T16:24:58.562Z,3.88
2023-03-18T16:25:58.871Z,3.86
2023-03-18T16:26:59.558Z,3.81
2023-03-18T16:28:00.668Z,3.78
2023-03-18T16:28:59.914Z,3.72
2023-03-18T16:30:00.603Z,3.73
2023-03-18T16:31:00.644Z,3.76
2023-03-18T16:32:01.358Z,3.77
2023-03-18T16:33:01.594Z,3.78
2023-03-18T16:34:01.708Z,3.78
2023-03-18T16:35:02.318Z,3.75
2023-03-18T16:36:03.426Z,3.74
2023-03-18T16:37:03.049Z,3.72
2023-03-18T16:38:03.298Z,3.71
2023-03-18T16:41:07.338Z,3.74
2023-03-18T16:42:09.629Z,3.7
2023-03-18T16:46:15.057Z,3.63
2023-03-18T16:48:20.945Z,3.6
2023-03-18T16:50:24.219Z,3.51
2023-03-18T16:51:21.565Z,3.47
2023-03-18T16:52:22.308Z,3.47
2023-03-18T16:53:25.301Z,3.44
2023-03-18T16:54:25.894Z,3.37
2023-03-18T16:55:23.846Z,3.36
2023-03-18T16:56:24.571Z,3.34
2023-03-18T16:57:24.014Z,3.39
2023-03-18T16:58:35.294Z,3.39
2023-03-18T16:59:31.877Z,3.43
2023-03-18T17:00:31.618Z,3.41
2023-03-18T17:01:29.762Z,3.37
2023-03-18T17:02:34.851Z,3.36
2023-03-18T17:03:32.106Z,3.34
2023-03-18T17:04:34.980Z,3.33
2023-03-18T17:05:33.363Z,3.39
2023-03-18T17:06:33.339Z,3.38
2023-03-18T17:07:33.890Z,3.39
2023-03-18T17:08:34.185Z,3.37
2023-03-18T17:09:34.236Z,3.37
2023-03-18T17:10:35.977Z,3.34
2023-03-18T17:11:36.067Z,3.32
2023-03-18T17:12:36.583Z,3.3
2023-03-18T17:13:36.055Z,3.29
2023-03-18T17:14:41.503Z,3.32
2023-03-18T17:15:39.348Z,3.26
2023-03-18T17:16:39.685Z,3.28
2023-03-18T17:17:40.244Z,3.23
2023-03-18T17:18:39.977Z,3.18
2023-03-18T17:19:40.384Z,3.18
2023-03-18T17:20:41.328Z,3.22
2023-03-18T17:21:41.230Z,3.24
2023-03-18T17:22:41.499Z,3.25
2023-03-18T17:23:41.776Z,3.26
2023-03-18T17:24:42.184Z,3.21
2023-03-18T17:25:47.727Z,3.22
2023-03-18T17:26:45.661Z,3.2
2023-03-18T17:28:50.650Z,3.1
2023-03-18T17:29:51.152Z,3.1
2023-03-18T17:30:51.323Z,3.12
2023-03-18T17:31:54.596Z,3.21
2023-03-18T17:32:52.162Z,3.19
2023-03-18T17:33:52.581Z,3.13
2023-03-18T17:34:54.523Z,3.12